sensor_id;sensor_type;location;lat;lon;timestamp;pressure;altitude;pressure_sealevel;temperature;humidity
33949;BME280;20229;49.856;19.030;2023-10-31T00:03:43;100146.19;;;19.02;62.29
33949;BME280;20229;49.856;19.030;2023-10-31T00:08:58;100157.56;;;18.99;62.85
33949;BME280;20229;49.856;19.030;2023-10-31T00:14:13;100131.63;;;19.00;61.54
33949;BME280;20229;49.856;19.030;2023-10-31T00:19:27;100130.23;;;19.14;61.35
33949;BME280;20229;49.856;19.030;2023-10-31T00:24:40;100115.36;;;19.15;60.92
33949;BME280;20229;49.856;19.030;2023-10-31T00:29:54;100110.62;;;19.07;61.97
33949;BME280;20229;49.856;19.030;2023-10-31T00:35:08;100117.49;;;19.03;61.10
33949;BME280;20229;49.856;19.030;2023-10-31T00:40:24;100099.64;;;18.98;61.36
33949;BME280;20229;49.856;19.030;2023-10-31T00:45:38;100099.95;;;18.95;61.27
33949;BME280;20229;49.856;19.030;2023-10-31T00:50:52;100071.73;;;18.91;60.81
33949;BME280;20229;49.856;19.030;2023-10-31T00:56:07;100055.45;;;18.88;61.58
33949;BME280;20229;49.856;19.030;2023-10-31T01:01:21;100021.15;;;18.81;61.47
33949;BME280;20229;49.856;19.030;2023-10-31T01:06:42;99994.84;;;18.77;61.31
33949;BME280;20229;49.856;19.030;2023-10-31T01:11:56;99961.52;;;18.69;60.93
33949;BME280;20229;49.856;19.030;2023-10-31T01:17:12;99966.37;;;18.67;61.32
33949;BME280;20229;49.856;19.030;2023-10-31T01:22:26;99964.22;;;18.60;61.42
33949;BME280;20229;49.856;19.030;2023-10-31T01:27:40;99968.15;;;18.58;61.13
33949;BME280;20229;49.856;19.030;2023-10-31T01:33:00;99955.36;;;18.57;60.77
33949;BME280;20229;49.856;19.030;2023-10-31T01:38:14;99951.42;;;18.59;61.16
33949;BME280;20229;49.856;19.030;2023-10-31T01:43:37;99946.91;;;18.58;60.43
33949;BME280;20229;49.856;19.030;2023-10-31T01:48:51;99922.91;;;18.59;59.75
33949;BME280;20229;49.856;19.030;2023-10-31T01:54:06;99907.51;;;18.56;60.22
33949;BME280;20229;49.856;19.030;2023-10-31T01:59:20;99907.51;;;18.56;59.68
33949;BME280;20229;49.856;19.030;2023-10-31T02:04:34;99887.62;;;18.53;60.51
33949;BME280;20229;49.856;19.030;2023-10-31T02:09:48;99879.32;;;18.53;60.12
33949;BME280;20229;49.856;19.030;2023-10-31T02:15:03;99876.55;;;18.53;60.00
33949;BME280;20229;49.856;19.030;2023-10-31T02:20:18;99895.59;;;18.56;60.12
33949;BME280;20229;49.856;19.030;2023-10-31T02:25:32;99911.31;;;18.55;60.20
33949;BME280;20229;49.856;19.030;2023-10-31T02:30:46;99887.85;;;18.59;59.90
33949;BME280;20229;49.856;19.030;2023-10-31T02:36:00;99859.17;;;18.60;59.66
33949;BME280;20229;49.856;19.030;2023-10-31T02:41:15;99866.28;;;18.63;59.62
33949;BME280;20229;49.856;19.030;2023-10-31T02:46:30;99853.02;;;18.67;59.19
33949;BME280;20229;49.856;19.030;2023-10-31T02:51:44;99857.05;;;18.72;59.33
33949;BME280;20229;49.856;19.030;2023-10-31T02:56:58;99867.66;;;18.77;58.88
33949;BME280;20229;49.856;19.030;2023-10-31T03:02:12;99868.20;;;18.80;58.90
33949;BME280;20229;49.856;19.030;2023-10-31T03:07:26;99844.18;;;18.81;59.21
33949;BME280;20229;49.856;19.030;2023-10-31T03:12:40;99856.66;;;18.85;58.89
33949;BME280;20229;49.856;19.030;2023-10-31T03:17:54;99873.96;;;18.87;58.28
33949;BME280;20229;49.856;19.030;2023-10-31T03:23:09;99827.70;;;18.97;58.30
33949;BME280;20229;49.856;19.030;2023-10-31T03:28:25;99822.92;;;19.07;57.72
33949;BME280;20229;49.856;19.030;2023-10-31T03:33:41;99812.29;;;19.21;57.30
33949;BME280;20229;49.856;19.030;2023-10-31T03:38:55;99814.41;;;19.27;56.16
33949;BME280;20229;49.856;19.030;2023-10-31T03:44:10;99785.91;;;19.34;56.51
33949;BME280;20229;49.856;19.030;2023-10-31T03:49:24;99819.98;;;19.35;56.59
33949;BME280;20229;49.856;19.030;2023-10-31T03:54:38;99798.56;;;19.37;55.49
33949;BME280;20229;49.856;19.030;2023-10-31T03:59:52;99793.91;;;19.46;54.84
33949;BME280;20229;49.856;19.030;2023-10-31T04:05:06;99788.25;;;19.55;55.39
33949;BME280;20229;49.856;19.030;2023-10-31T04:10:20;99784.78;;;19.53;55.41
33949;BME280;20229;49.856;19.030;2023-10-31T04:15:35;99771.65;;;19.55;53.73
33949;BME280;20229;49.856;19.030;2023-10-31T04:20:49;99790.51;;;19.60;54.36
33949;BME280;20229;49.856;19.030;2023-10-31T04:26:04;99797.66;;;19.63;54.47
33949;BME280;20229;49.856;19.030;2023-10-31T04:31:18;99792.60;;;19.58;53.75
33949;BME280;20229;49.856;19.030;2023-10-31T04:36:32;99779.44;;;19.60;54.37
33949;BME280;20229;49.856;19.030;2023-10-31T04:41:46;99794.13;;;19.52;54.97
33949;BME280;20229;49.856;19.030;2023-10-31T04:47:00;99785.47;;;19.47;54.22
33949;BME280;20229;49.856;19.030;2023-10-31T04:52:13;99805.49;;;19.41;55.05
33949;BME280;20229;49.856;19.030;2023-10-31T04:57:27;99798.38;;;19.39;54.08
33949;BME280;20229;49.856;19.030;2023-10-31T05:02:41;99792.16;;;19.37;53.90
33949;BME280;20229;49.856;19.030;2023-10-31T05:07:56;99748.03;;;19.35;53.89
33949;BME280;20229;49.856;19.030;2023-10-31T05:13:10;99793.70;;;19.39;53.91
33949;BME280;20229;49.856;19.030;2023-10-31T05:18:24;99802.40;;;19.44;53.31
33949;BME280;20229;49.856;19.030;2023-10-31T05:23:40;99793.05;;;19.45;52.95
33949;BME280;20229;49.856;19.030;2023-10-31T05:28:57;99778.55;;;19.51;52.91
33949;BME280;20229;49.856;19.030;2023-10-31T05:34:11;99786.53;;;19.54;53.45
33949;BME280;20229;49.856;19.030;2023-10-31T05:39:25;99756.76;;;19.56;53.71
33949;BME280;20229;49.856;19.030;2023-10-31T05:44:39;99789.97;;;19.56;53.67
33949;BME280;20229;49.856;19.030;2023-10-31T05:49:53;99801.05;;;19.56;53.79
33949;BME280;20229;49.856;19.030;2023-10-31T05:55:08;99810.40;;;19.55;53.74
33949;BME280;20229;49.856;19.030;2023-10-31T06:00:22;99831.50;;;19.56;53.44
33949;BME280;20229;49.856;19.030;2023-10-31T06:05:36;99834.78;;;19.52;54.11
33949;BME280;20229;49.856;19.030;2023-10-31T06:10:50;99849.13;;;19.47;54.66
33949;BME280;20229;49.856;19.030;2023-10-31T06:16:05;99871.74;;;19.43;54.95
33949;BME280;20229;49.856;19.030;2023-10-31T06:21:19;99882.27;;;19.39;55.27
33949;BME280;20229;49.856;19.030;2023-10-31T06:26:36;99880.17;;;19.33;55.37
33949;BME280;20229;49.856;19.030;2023-10-31T06:31:52;99829.65;;;19.31;55.52
33949;BME280;20229;49.856;19.030;2023-10-31T06:37:06;99885.64;;;19.25;55.39
33949;BME280;20229;49.856;19.030;2023-10-31T06:42:20;99888.91;;;19.20;55.88
33949;BME280;20229;49.856;19.030;2023-10-31T06:47:33;99909.95;;;19.13;55.67
33949;BME280;20229;49.856;19.030;2023-10-31T06:52:50;99753.09;;;18.18;56.08
33949;BME280;20229;49.856;19.030;2023-10-31T06:58:04;99920.05;;;19.04;56.56
33949;BME280;20229;49.856;19.030;2023-10-31T07:03:18;99908.62;;;18.99;56.95
33949;BME280;20229;49.856;19.030;2023-10-31T07:08:33;99926.40;;;18.97;57.19
33949;BME280;20229;49.856;19.030;2023-10-31T07:13:47;99895.42;;;18.93;57.14
33949;BME280;20229;49.856;19.030;2023-10-31T07:19:01;99901.99;;;18.92;57.78
33949;BME280;20229;49.856;19.030;2023-10-31T07:24:15;99886.44;;;18.91;57.48
33949;BME280;20229;49.856;19.030;2023-10-31T07:29:28;99898.36;;;18.92;58.33
33949;BME280;20229;49.856;19.030;2023-10-31T07:34:46;99911.33;;;18.91;58.17
33949;BME280;20229;49.856;19.030;2023-10-31T07:40:00;99934.45;;;18.90;58.92
33949;BME280;20229;49.856;19.030;2023-10-31T07:45:14;99946.97;;;18.94;59.02
33949;BME280;20229;49.856;19.030;2023-10-31T07:50:27;99957.30;;;18.92;58.76
33949;BME280;20229;49.856;19.030;2023-10-31T07:55:41;99976.83;;;18.91;60.03
33949;BME280;20229;49.856;19.030;2023-10-31T08:00:56;99987.66;;;18.84;60.51
33949;BME280;20229;49.856;19.030;2023-10-31T08:06:10;99984.78;;;18.76;60.23
33949;BME280;20229;49.856;19.030;2023-10-31T08:11:24;99990.21;;;18.68;60.44
33949;BME280;20229;49.856;19.030;2023-10-31T08:16:38;99974.96;;;18.63;60.62
33949;BME280;20229;49.856;19.030;2023-10-31T08:21:52;100004.65;;;18.61;60.76
33949;BME280;20229;49.856;19.030;2023-10-31T08:27:07;100009.61;;;18.58;61.07
33949;BME280;20229;49.856;19.030;2023-10-31T08:32:21;100005.90;;;18.49;61.77
33949;BME280;20229;49.856;19.030;2023-10-31T08:37:43;99997.74;;;18.48;61.17
33949;BME280;20229;49.856;19.030;2023-10-31T08:42:57;100011.73;;;18.46;61.43
33949;BME280;20229;49.856;19.030;2023-10-31T08:48:11;100022.23;;;18.43;61.87
33949;BME280;20229;49.856;19.030;2023-10-31T08:53:25;100033.88;;;18.36;62.25
33949;BME280;20229;49.856;19.030;2023-10-31T08:58:42;100035.78;;;18.36;62.37
33949;BME280;20229;49.856;19.030;2023-10-31T09:03:56;100055.02;;;18.28;62.51
33949;BME280;20229;49.856;19.030;2023-10-31T09:09:12;100063.74;;;18.23;62.49
33949;BME280;20229;49.856;19.030;2023-10-31T09:14:28;100088.95;;;18.20;62.72
33949;BME280;20229;49.856;19.030;2023-10-31T09:19:42;100119.45;;;18.19;62.56
33949;BME280;20229;49.856;19.030;2023-10-31T09:24:56;100124.41;;;18.15;63.30
33949;BME280;20229;49.856;19.030;2023-10-31T09:30:10;100118.19;;;18.13;63.82
33949;BME280;20229;49.856;19.030;2023-10-31T09:35:24;100117.62;;;18.09;63.62
33949;BME280;20229;49.856;19.030;2023-10-31T09:40:43;100112.23;;;18.08;64.29
33949;BME280;20229;49.856;19.030;2023-10-31T09:45:57;100112.52;;;18.05;64.68
33949;BME280;20229;49.856;19.030;2023-10-31T09:51:14;100132.88;;;18.04;64.56
33949;BME280;20229;49.856;19.030;2023-10-31T09:56:31;100141.04;;;17.96;64.92
33949;BME280;20229;49.856;19.030;2023-10-31T10:01:48;100133.91;;;17.93;65.45
33949;BME280;20229;49.856;19.030;2023-10-31T10:07:45;100125.92;;;17.90;65.02
33949;BME280;20229;49.856;19.030;2023-10-31T10:13:09;100120.70;;;17.87;65.41
33949;BME280;20229;49.856;19.030;2023-10-31T10:18:26;100117.36;;;17.83;65.83
33949;BME280;20229;49.856;19.030;2023-10-31T10:23:41;100129.40;;;17.73;65.96
33949;BME280;20229;49.856;19.030;2023-10-31T10:28:55;100135.20;;;17.69;65.93
33949;BME280;20229;49.856;19.030;2023-10-31T10:34:09;100145.09;;;17.62;66.07
33949;BME280;20229;49.856;19.030;2023-10-31T10:39:24;100153.81;;;17.58;67.27
33949;BME280;20229;49.856;19.030;2023-10-31T10:44:43;100140.88;;;17.49;67.61
33949;BME280;20229;49.856;19.030;2023-10-31T10:49:59;100146.55;;;17.47;68.48
33949;BME280;20229;49.856;19.030;2023-10-31T10:55:21;100142.77;;;17.48;68.74
33949;BME280;20229;49.856;19.030;2023-10-31T11:00:38;100133.19;;;17.52;68.41
33949;BME280;20229;49.856;19.030;2023-10-31T11:05:54;100132.60;;;17.58;68.73
33949;BME280;20229;49.856;19.030;2023-10-31T11:11:08;100134.92;;;17.73;69.40
33949;BME280;20229;49.856;19.030;2023-10-31T11:16:37;100134.34;;;17.69;68.38
33949;BME280;20229;49.856;19.030;2023-10-31T11:21:58;100130.88;;;17.57;69.78
33949;BME280;20229;49.856;19.030;2023-10-31T11:27:12;100150.62;;;17.43;70.33
33949;BME280;20229;49.856;19.030;2023-10-31T11:32:28;100137.98;;;17.40;69.76
33949;BME280;20229;49.856;19.030;2023-10-31T11:37:41;100134.35;;;17.40;70.06
33949;BME280;20229;49.856;19.030;2023-10-31T11:43:02;100130.29;;;17.54;69.42
33949;BME280;20229;49.856;19.030;2023-10-31T11:48:31;100106.61;;;17.71;69.12
33949;BME280;20229;49.856;19.030;2023-10-31T11:53:38;100092.79;;;17.90;68.96
33949;BME280;20229;49.856;19.030;2023-10-31T12:04:22;100095.63;;;18.18;69.22
33949;BME280;20229;49.856;19.030;2023-10-31T12:09:46;100069.41;;;18.31;68.28
33949;BME280;20229;49.856;19.030;2023-10-31T12:15:07;100059.02;;;18.43;68.42
33949;BME280;20229;49.856;19.030;2023-10-31T12:20:21;100044.07;;;18.36;67.97
33949;BME280;20229;49.856;19.030;2023-10-31T12:31:04;100030.66;;;18.13;69.14
33949;BME280;20229;49.856;19.030;2023-10-31T12:36:22;100049.85;;;18.05;69.18
33949;BME280;20229;49.856;19.030;2023-10-31T12:41:37;100066.62;;;17.94;69.49
33949;BME280;20229;49.856;19.030;2023-10-31T12:46:51;100058.80;;;17.80;70.60
33949;BME280;20229;49.856;19.030;2023-10-31T12:52:07;100071.02;;;17.67;71.58
33949;BME280;20229;49.856;19.030;2023-10-31T12:57:20;100084.25;;;17.54;71.67
33949;BME280;20229;49.856;19.030;2023-10-31T13:02:34;100097.75;;;17.38;73.50
33949;BME280;20229;49.856;19.030;2023-10-31T13:07:52;100091.35;;;17.28;74.43
33949;BME280;20229;49.856;19.030;2023-10-31T13:13:06;100070.04;;;17.10;78.07
33949;BME280;20229;49.856;19.030;2023-10-31T13:18:20;100075.66;;;16.99;79.46
33949;BME280;20229;49.856;19.030;2023-10-31T13:23:34;100070.73;;;16.93;81.59
33949;BME280;20229;49.856;19.030;2023-10-31T13:28:48;100074.48;;;16.82;82.91
33949;BME280;20229;49.856;19.030;2023-10-31T13:34:02;100070.93;;;16.70;84.03
33949;BME280;20229;49.856;19.030;2023-10-31T13:39:19;100096.45;;;16.63;84.66
33949;BME280;20229;49.856;19.030;2023-10-31T13:44:34;100078.14;;;16.52;85.54
33949;BME280;20229;49.856;19.030;2023-10-31T13:49:48;100083.01;;;16.39;87.06
33949;BME280;20229;49.856;19.030;2023-10-31T13:55:04;100104.43;;;16.25;88.04
33949;BME280;20229;49.856;19.030;2023-10-31T14:00:18;100103.24;;;16.18;88.63
33949;BME280;20229;49.856;19.030;2023-10-31T14:05:32;100099.56;;;16.08;88.43
33949;BME280;20229;49.856;19.030;2023-10-31T14:10:46;100123.41;;;15.98;89.56
33949;BME280;20229;49.856;19.030;2023-10-31T14:16:03;100129.11;;;15.85;89.43
33949;BME280;20229;49.856;19.030;2023-10-31T14:21:17;100134.54;;;15.75;89.59
33949;BME280;20229;49.856;19.030;2023-10-31T14:26:31;100138.60;;;15.60;90.18
33949;BME280;20229;49.856;19.030;2023-10-31T14:31:48;100135.77;;;15.50;88.66
33949;BME280;20229;49.856;19.030;2023-10-31T14:37:04;100148.70;;;15.39;92.13
33949;BME280;20229;49.856;19.030;2023-10-31T14:42:21;100145.74;;;15.30;92.48
33949;BME280;20229;49.856;19.030;2023-10-31T14:47:35;100151.14;;;15.21;93.56
33949;BME280;20229;49.856;19.030;2023-10-31T14:52:49;100135.15;;;15.15;93.24
33949;BME280;20229;49.856;19.030;2023-10-31T14:58:04;100136.83;;;15.06;94.02
33949;BME280;20229;49.856;19.030;2023-10-31T15:03:18;100157.34;;;15.02;93.50
33949;BME280;20229;49.856;19.030;2023-10-31T15:08:33;100158.95;;;14.93;93.91
33949;BME280;20229;49.856;19.030;2023-10-31T15:13:47;100177.83;;;14.87;94.97
33949;BME280;20229;49.856;19.030;2023-10-31T15:19:01;100175.85;;;14.77;96.99
33949;BME280;20229;49.856;19.030;2023-10-31T15:24:15;100155.49;;;14.69;95.82
33949;BME280;20229;49.856;19.030;2023-10-31T15:29:29;100164.99;;;14.65;95.46
33949;BME280;20229;49.856;19.030;2023-10-31T15:34:43;100156.52;;;14.56;96.97
33949;BME280;20229;49.856;19.030;2023-10-31T15:39:57;100154.12;;;14.52;97.87
33949;BME280;20229;49.856;19.030;2023-10-31T15:45:11;100164.45;;;14.48;96.99
33949;BME280;20229;49.856;19.030;2023-10-31T15:50:25;100165.46;;;14.36;97.12
33949;BME280;20229;49.856;19.030;2023-10-31T15:55:39;100197.78;;;14.32;98.62
33949;BME280;20229;49.856;19.030;2023-10-31T16:00:54;100179.81;;;14.28;98.35
33949;BME280;20229;49.856;19.030;2023-10-31T16:06:08;100197.01;;;14.19;96.75
33949;BME280;20229;49.856;19.030;2023-10-31T16:11:22;100199.73;;;14.08;96.37
33949;BME280;20229;49.856;19.030;2023-10-31T16:16:37;100183.98;;;13.99;97.58
33949;BME280;20229;49.856;19.030;2023-10-31T16:21:51;100206.04;;;13.86;97.07
33949;BME280;20229;49.856;19.030;2023-10-31T16:27:06;100207.75;;;13.76;95.92
33949;BME280;20229;49.856;19.030;2023-10-31T16:32:22;100220.56;;;13.64;97.82
33949;BME280;20229;49.856;19.030;2023-10-31T16:37:36;100253.92;;;13.58;97.66
33949;BME280;20229;49.856;19.030;2023-10-31T16:42:50;100257.59;;;13.46;98.29
33949;BME280;20229;49.856;19.030;2023-10-31T16:48:04;100288.98;;;13.42;99.32
33949;BME280;20229;49.856;19.030;2023-10-31T16:53:18;100316.09;;;13.33;99.00
33949;BME280;20229;49.856;19.030;2023-10-31T16:58:32;100333.12;;;13.26;98.17
33949;BME280;20229;49.856;19.030;2023-10-31T17:03:48;100345.58;;;13.17;98.50
33949;BME280;20229;49.856;19.030;2023-10-31T17:09:02;100351.27;;;13.14;97.69
33949;BME280;20229;49.856;19.030;2023-10-31T17:14:16;100372.89;;;13.06;98.45
33949;BME280;20229;49.856;19.030;2023-10-31T17:19:30;100381.77;;;12.97;99.07
33949;BME280;20229;49.856;19.030;2023-10-31T17:24:44;100374.98;;;12.89;99.80
33949;BME280;20229;49.856;19.030;2023-10-31T17:29:58;100385.40;;;12.84;99.57
33949;BME280;20229;49.856;19.030;2023-10-31T17:35:15;100383.30;;;12.75;98.86
33949;BME280;20229;49.856;19.030;2023-10-31T17:40:29;100402.05;;;12.68;99.33
33949;BME280;20229;49.856;19.030;2023-10-31T17:45:44;100401.60;;;12.62;99.26
33949;BME280;20229;49.856;19.030;2023-10-31T17:50:59;100410.44;;;12.53;100.00
33949;BME280;20229;49.856;19.030;2023-10-31T17:56:15;100428.60;;;12.41;100.00
33949;BME280;20229;49.856;19.030;2023-10-31T18:01:28;100428.89;;;12.36;100.00
33949;BME280;20229;49.856;19.030;2023-10-31T18:06:45;100434.69;;;12.32;100.00
33949;BME280;20229;49.856;19.030;2023-10-31T18:11:59;100431.20;;;12.30;100.00
33949;BME280;20229;49.856;19.030;2023-10-31T18:17:13;100447.16;;;12.23;99.66
33949;BME280;20229;49.856;19.030;2023-10-31T18:22:27;100467.71;;;12.16;100.00
33949;BME280;20229;49.856;19.030;2023-10-31T18:27:41;100476.31;;;12.10;100.00
33949;BME280;20229;49.856;19.030;2023-10-31T18:32:56;100499.39;;;12.06;100.00
33949;BME280;20229;49.856;19.030;2023-10-31T18:38:16;100514.45;;;11.99;100.00
33949;BME280;20229;49.856;19.030;2023-10-31T18:43:30;100515.52;;;11.96;100.00
33949;BME280;20229;49.856;19.030;2023-10-31T18:48:44;100522.74;;;11.97;100.00
33949;BME280;20229;49.856;19.030;2023-10-31T18:54:00;100544.83;;;11.94;100.00
33949;BME280;20229;49.856;19.030;2023-10-31T18:59:14;100542.40;;;11.89;100.00
33949;BME280;20229;49.856;19.030;2023-10-31T19:04:28;100557.25;;;11.85;100.00
33949;BME280;20229;49.856;19.030;2023-10-31T19:09:44;100556.54;;;11.82;100.00
33949;BME280;20229;49.856;19.030;2023-10-31T19:14:58;100562.12;;;11.80;100.00
33949;BME280;20229;49.856;19.030;2023-10-31T19:20:12;100565.23;;;11.74;100.00
33949;BME280;20229;49.856;19.030;2023-10-31T19:25:27;100554.48;;;11.71;100.00
33949;BME280;20229;49.856;19.030;2023-10-31T19:30:42;100568.54;;;11.65;100.00
33949;BME280;20229;49.856;19.030;2023-10-31T19:35:56;100576.93;;;11.62;100.00
33949;BME280;20229;49.856;19.030;2023-10-31T19:41:15;100579.97;;;11.57;100.00
33949;BME280;20229;49.856;19.030;2023-10-31T19:46:28;100587.37;;;11.55;100.00
33949;BME280;20229;49.856;19.030;2023-10-31T19:51:44;100594.88;;;11.52;100.00
33949;BME280;20229;49.856;19.030;2023-10-31T19:56:57;100594.12;;;11.49;100.00
33949;BME280;20229;49.856;19.030;2023-10-31T20:02:12;100578.77;;;11.47;100.00
33949;BME280;20229;49.856;19.030;2023-10-31T20:07:26;100581.62;;;11.45;100.00
33949;BME280;20229;49.856;19.030;2023-10-31T20:12:41;100580.05;;;11.41;100.00
33949;BME280;20229;49.856;19.030;2023-10-31T20:17:55;100580.05;;;11.41;100.00
33949;BME280;20229;49.856;19.030;2023-10-31T20:23:09;100576.52;;;11.39;100.00
33949;BME280;20229;49.856;19.030;2023-10-31T20:28:23;100591.25;;;11.37;100.00
33949;BME280;20229;49.856;19.030;2023-10-31T20:33:37;100598.75;;;11.33;100.00
33949;BME280;20229;49.856;19.030;2023-10-31T20:38:54;100611.54;;;11.33;100.00
33949;BME280;20229;49.856;19.030;2023-10-31T20:44:08;100607.25;;;11.29;100.00
33949;BME280;20229;49.856;19.030;2023-10-31T20:49:22;100607.43;;;11.25;100.00
33949;BME280;20229;49.856;19.030;2023-10-31T20:54:36;100611.32;;;11.21;100.00
33949;BME280;20229;49.856;19.030;2023-10-31T20:59:50;100621.38;;;11.21;100.00
33949;BME280;20229;49.856;19.030;2023-10-31T21:05:05;100627.03;;;11.18;100.00
33949;BME280;20229;49.856;19.030;2023-10-31T21:10:20;100637.95;;;11.18;100.00
33949;BME280;20229;49.856;19.030;2023-10-31T21:15:35;100651.90;;;11.13;100.00
33949;BME280;20229;49.856;19.030;2023-10-31T21:20:49;100653.65;;;11.14;100.00
33949;BME280;20229;49.856;19.030;2023-10-31T21:26:06;100648.18;;;11.14;100.00
33949;BME280;20229;49.856;19.030;2023-10-31T21:31:20;100652.60;;;11.17;100.00
33949;BME280;20229;49.856;19.030;2023-10-31T21:36:34;100669.05;;;11.15;100.00
33949;BME280;20229;49.856;19.030;2023-10-31T21:41:48;100680.79;;;11.17;100.00
33949;BME280;20229;49.856;19.030;2023-10-31T21:47:02;100679.91;;;11.17;100.00
33949;BME280;20229;49.856;19.030;2023-10-31T21:52:18;100689.06;;;11.16;100.00
33949;BME280;20229;49.856;19.030;2023-10-31T21:57:31;100692.59;;;11.18;100.00
33949;BME280;20229;49.856;19.030;2023-10-31T22:02:46;100696.30;;;11.17;100.00
33949;BME280;20229;49.856;19.030;2023-10-31T22:08:00;100690.92;;;11.15;100.00
33949;BME280;20229;49.856;19.030;2023-10-31T22:13:14;100696.30;;;11.17;100.00
33949;BME280;20229;49.856;19.030;2023-10-31T22:18:29;100701.95;;;11.14;100.00
33949;BME280;20229;49.856;19.030;2023-10-31T22:23:43;100720.10;;;11.15;100.00
33949;BME280;20229;49.856;19.030;2023-10-31T22:28:56;100716.55;;;11.13;100.00
33949;BME280;20229;49.856;19.030;2023-10-31T22:34:10;100715.79;;;11.11;100.00
33949;BME280;20229;49.856;19.030;2023-10-31T22:39:26;100723.98;;;11.11;100.00
33949;BME280;20229;49.856;19.030;2023-10-31T22:44:40;100727.70;;;11.10;100.00
33949;BME280;20229;49.856;19.030;2023-10-31T22:49:54;100739.75;;;11.06;100.00
33949;BME280;20229;49.856;19.030;2023-10-31T22:55:08;100754.31;;;11.06;100.00
33949;BME280;20229;49.856;19.030;2023-10-31T23:00:24;100757.12;;;11.05;100.00
33949;BME280;20229;49.856;19.030;2023-10-31T23:05:47;100766.20;;;11.05;100.00
33949;BME280;20229;49.856;19.030;2023-10-31T23:11:01;100752.00;;;10.98;100.00
33949;BME280;20229;49.856;19.030;2023-10-31T23:16:16;100771.59;;;11.07;100.00
33949;BME280;20229;49.856;19.030;2023-10-31T23:21:31;100788.91;;;11.06;100.00
33949;BME280;20229;49.856;19.030;2023-10-31T23:26:45;100791.66;;;11.06;100.00
33949;BME280;20229;49.856;19.030;2023-10-31T23:31:59;100790.95;;;11.02;100.00
33949;BME280;20229;49.856;19.030;2023-10-31T23:37:13;100813.60;;;11.04;100.00
33949;BME280;20229;49.856;19.030;2023-10-31T23:42:27;100811.76;;;11.05;100.00
33949;BME280;20229;49.856;19.030;2023-10-31T23:47:41;100806.29;;;11.05;100.00
33949;BME280;20229;49.856;19.030;2023-10-31T23:52:55;100824.63;;;11.03;100.00
33949;BME280;20229;49.856;19.030;2023-10-31T23:58:09;100821.10;;;11.00;100.00
